Time;durP1;ratioP1;P1;durP2;ratioP2;P2;SDS_P1;SDS_P2;PMS_P1;PMS_P2;Temp;Humidity;BMP_temperature;BMP_pressure;BME280_temperature;BME280_humidity;BME280_pressure;Samples;Min_cycle;Max_cycle;Signal;HPM_P1;HPM_P2
2023/05/08 00:00:03;;;;;;;5.43;4.15;;;4.80;99.90;;;;;;5074425;28;20013;-81
2023/05/08 00:02:30;;;;;;;5.40;4.40;;;4.80;99.90;;;;;;5074330;28;20028;-78
2023/05/08 00:04:56;;;;;;;6.15;4.32;;;4.80;99.90;;;;;;5073850;28;20024;-81
2023/05/08 00:07:21;;;;;;;6.13;4.40;;;4.80;99.90;;;;;;5073041;28;20020;-79
2023/05/08 00:09:47;;;;;;;7.68;4.32;;;4.80;99.90;;;;;;5074227;28;20016;-81
2023/05/08 00:12:13;;;;;;;5.85;4.03;;;4.80;99.90;;;;;;5074138;28;20051;-78
2023/05/08 00:14:38;;;;;;;5.68;4.40;;;4.80;99.90;;;;;;5072888;28;20490;-77
2023/05/08 00:17:04;;;;;;;7.68;4.85;;;4.80;99.90;;;;;;5072716;28;20616;-77
2023/05/08 00:19:29;;;;;;;5.93;4.90;;;4.80;99.90;;;;;;5072995;28;20017;-79
2023/05/08 00:21:55;;;;;;;6.88;5.32;;;4.70;99.90;;;;;;5072763;28;20060;-79
2023/05/08 00:24:21;;;;;;;6.50;4.88;;;4.70;99.90;;;;;;5073784;28;20355;-79
2023/05/08 00:26:46;;;;;;;7.15;5.93;;;4.70;99.90;;;;;;5073856;28;20082;-79
2023/05/08 00:29:12;;;;;;;10.20;5.65;;;4.70;99.90;;;;;;5072408;28;20032;-81
2023/05/08 00:31:38;;;;;;;5.88;5.07;;;4.70;99.90;;;;;;5073608;28;20505;-81
2023/05/08 00:34:03;;;;;;;9.27;6.10;;;4.70;99.90;;;;;;5073584;28;20441;-78
2023/05/08 00:36:29;;;;;;;8.90;5.88;;;4.60;99.90;;;;;;5072401;28;20505;-80
2023/05/08 00:38:54;;;;;;;7.03;5.90;;;4.60;99.90;;;;;;5073679;28;20390;-78
2023/05/08 00:41:20;;;;;;;9.32;6.75;;;4.60;99.90;;;;;;5072385;28;20020;-78
2023/05/08 00:43:46;;;;;;;6.90;5.90;;;4.70;99.90;;;;;;5072351;28;20107;-78
2023/05/08 00:46:12;;;;;;;6.75;6.15;;;4.70;99.90;;;;;;5073537;28;20028;-79
2023/05/08 00:48:38;;;;;;;7.32;5.60;;;4.70;99.90;;;;;;5073596;28;20020;-80
2023/05/08 00:51:06;;;;;;;7.43;5.97;;;4.60;99.90;;;;;;5073516;28;20024;-81
2023/05/08 00:53:36;;;;;;;7.35;6.55;;;4.60;99.90;;;;;;5072105;28;20036;-78
2023/05/08 00:56:02;;;;;;;6.03;4.97;;;4.60;99.90;;;;;;5073301;28;20386;-78
2023/05/08 00:58:30;;;;;;;6.38;5.68;;;4.60;99.90;;;;;;5072264;28;20436;-81
2023/05/08 01:00:56;;;;;;;7.53;5.63;;;4.50;99.90;;;;;;5072114;28;20485;-78
2023/05/08 01:03:23;;;;;;;6.80;5.70;;;4.60;99.90;;;;;;5073361;28;20020;-77
2023/05/08 01:05:49;;;;;;;6.90;5.15;;;4.50;99.90;;;;;;5072006;28;20028;-80
2023/05/08 01:08:15;;;;;;;6.22;5.10;;;4.50;99.90;;;;;;5072038;28;20020;-80
2023/05/08 01:10:59;;;;;;;6.55;4.55;;;4.50;99.90;;;;;;5073276;28;20091;-80
2023/05/08 01:13:45;;;;;;;7.63;5.60;;;4.40;99.90;;;;;;5073132;28;20505;-78
2023/05/08 01:16:16;;;;;;;5.40;4.43;;;4.40;99.90;;;;;;5073315;28;20115;-81
2023/05/08 01:19:10;;;;;;;4.35;3.95;;;4.40;99.90;;;;;;5071895;28;20466;-81
2023/05/08 01:21:59;;;;;;;5.47;4.35;;;4.40;99.90;;;;;;5073085;28;20024;-81
2023/05/08 01:24:43;;;;;;;8.23;3.90;;;4.50;99.90;;;;;;5072063;28;20039;-79
2023/05/08 01:27:14;;;;;;;4.40;3.88;;;4.40;99.90;;;;;;5073044;28;20025;-80
2023/05/08 01:30:17;;;;;;;4.30;3.85;;;4.40;99.90;;;;;;5071907;28;20459;-82
2023/05/08 01:32:54;;;;;;;6.25;4.38;;;4.40;99.90;;;;;;5071780;28;20032;-81
2023/05/08 01:35:34;;;;;;;6.50;5.20;;;4.40;99.90;;;;;;5072023;28;20402;-77
2023/05/08 01:38:30;;;;;;;8.63;4.78;;;4.40;99.90;;;;;;5071811;28;20024;-81
2023/05/08 01:41:09;;;;;;;4.32;3.42;;;4.40;99.90;;;;;;5073115;28;20390;-81
2023/05/08 01:43:44;;;;;;;4.00;3.38;;;4.40;99.90;;;;;;5071756;28;20485;-81
2023/05/08 01:46:26;;;;;;;4.78;4.13;;;4.40;99.90;;;;;;5071740;28;20021;-78
2023/05/08 01:49:33;;;;;;;4.30;3.90;;;4.30;99.90;;;;;;5071571;28;20035;-80
2023/05/08 01:52:07;;;;;;;6.05;4.70;;;4.30;99.90;;;;;;5053883;28;20028;-78
2023/05/08 01:54:41;;;;;;;4.30;3.90;;;4.30;99.90;;;;;;5054082;28;20482;-78
2023/05/08 01:57:09;;;;;;;4.68;4.25;;;4.30;99.90;;;;;;5072092;28;20041;-78
2023/05/08 01:59:37;;;;;;;5.15;4.30;;;4.30;99.90;;;;;;5071499;28;20612;-78
2023/05/08 02:02:04;;;;;;;5.00;4.50;;;4.30;99.90;;;;;;5072779;28;20055;-78
2023/05/08 02:04:31;;;;;;;4.43;3.95;;;4.30;99.90;;;;;;5072854;28;20383;-79
2023/05/08 02:06:58;;;;;;;4.97;4.25;;;4.30;99.90;;;;;;5072663;28;20028;-81
2023/05/08 02:09:25;;;;;;;6.00;4.32;;;4.20;99.90;;;;;;5075099;28;20100;-81
2023/05/08 02:11:52;;;;;;;5.22;4.05;;;4.20;99.90;;;;;;5076383;28;20055;-79
2023/05/08 02:14:19;;;;;;;4.25;3.85;;;4.20;99.90;;;;;;5076452;28;20063;-78
2023/05/08 02:16:47;;;;;;;7.22;4.22;;;4.20;99.90;;;;;;5075083;28;20490;-78
2023/05/08 02:19:15;;;;;;;7.13;4.72;;;4.20;99.90;;;;;;5075108;28;20020;-79
2023/05/08 02:21:42;;;;;;;5.45;4.25;;;4.20;99.90;;;;;;5076295;28;20021;-82
2023/05/08 02:24:09;;;;;;;5.88;4.50;;;4.20;99.90;;;;;;5075023;28;20023;-81
2023/05/08 02:26:36;;;;;;;6.90;4.65;;;4.20;99.90;;;;;;5076303;28;20025;-81
2023/05/08 02:29:02;;;;;;;7.13;4.40;;;4.20;99.90;;;;;;5074964;28;20021;-81
2023/05/08 02:31:29;;;;;;;8.25;4.60;;;4.20;99.90;;;;;;5074972;28;20086;-81
2023/05/08 02:33:57;;;;;;;7.03;5.18;;;4.20;99.90;;;;;;5074513;28;20082;-81
2023/05/08 02:36:27;;;;;;;7.28;5.63;;;4.20;99.90;;;;;;5075045;28;20043;-78
2023/05/08 02:38:54;;;;;;;7.03;4.88;;;4.20;99.90;;;;;;5074737;28;20528;-78
2023/05/08 02:41:24;;;;;;;6.75;4.75;;;4.20;99.90;;;;;;5075946;28;20115;-78
2023/05/08 02:43:51;;;;;;;7.50;4.90;;;4.10;99.90;;;;;;5075984;28;20056;-80
2023/05/08 02:46:26;;;;;;;6.25;5.45;;;4.10;99.90;;;;;;5074652;28;20029;-78
2023/05/08 02:49:04;;;;;;;6.10;4.88;;;4.10;99.90;;;;;;5075766;28;20402;-80
2023/05/08 02:51:52;;;;;;;5.15;4.65;;;4.10;99.90;;;;;;5074492;28;20040;-81
2023/05/08 02:54:33;;;;;;;8.80;6.18;;;4.10;99.90;;;;;;5074463;28;20051;-79
2023/05/08 02:57:05;;;;;;;6.32;5.60;;;4.00;99.90;;;;;;5075707;28;20017;-81
2023/05/08 02:59:41;;;;;;;7.75;5.80;;;4.00;99.90;;;;;;5074440;28;20032;-80
2023/05/08 03:02:15;;;;;;;6.65;5.15;;;3.90;99.90;;;;;;5074269;28;20059;-78
2023/05/08 03:04:48;;;;;;;6.45;5.75;;;3.80;99.90;;;;;;5075742;28;20150;-78
2023/05/08 03:07:15;;;;;;;6.30;5.20;;;3.80;99.90;;;;;;5075499;28;20512;-80
2023/05/08 03:09:46;;;;;;;7.82;5.60;;;3.80;99.90;;;;;;5087589;28;20070;-78
2023/05/08 03:12:20;;;;;;;8.85;5.80;;;3.70;99.90;;;;;;5094285;28;20039;-80
2023/05/08 03:14:55;;;;;;;6.55;5.30;;;3.70;99.90;;;;;;5095694;28;20031;-81
2023/05/08 03:17:24;;;;;;;9.25;5.60;;;3.70;99.90;;;;;;5094282;28;20535;-79
2023/05/08 03:19:55;;;;;;;7.13;5.50;;;3.80;99.90;;;;;;5094120;28;20031;-81
2023/05/08 03:22:22;;;;;;;6.78;5.95;;;3.80;99.90;;;;;;5094243;28;20024;-80
2023/05/08 03:24:50;;;;;;;9.68;6.07;;;3.80;99.90;;;;;;5095485;28;20358;-81
2023/05/08 03:27:17;;;;;;;7.97;6.20;;;3.80;99.90;;;;;;5095847;28;20024;-78
2023/05/08 03:29:44;;;;;;;8.52;5.60;;;3.80;99.90;;;;;;5095377;28;20028;-82
2023/05/08 03:32:10;;;;;;;8.07;6.40;;;3.70;99.90;;;;;;5093902;28;20032;-80
2023/05/08 03:34:37;;;;;;;7.43;5.93;;;3.70;99.90;;;;;;5093811;28;20543;-81
2023/05/08 03:37:03;;;;;;;8.55;5.93;;;3.70;99.90;;;;;;5093801;28;20073;-81
2023/05/08 03:39:29;;;;;;;8.38;5.93;;;3.70;99.90;;;;;;5093956;28;20403;-78
2023/05/08 03:41:55;;;;;;;6.95;4.68;;;3.70;99.90;;;;;;5095055;28;20054;-78
2023/05/08 03:44:22;;;;;;;5.70;5.15;;;3.70;99.90;;;;;;5095048;28;20016;-82
2023/05/08 03:46:49;;;;;;;8.32;5.28;;;3.70;99.90;;;;;;5093752;28;20027;-78
2023/05/08 03:49:17;;;;;;;6.82;4.97;;;3.60;99.90;;;;;;5094870;28;20028;-79
2023/05/08 03:51:44;;;;;;;6.57;4.60;;;3.70;99.90;;;;;;5094823;28;20532;-81
2023/05/08 03:54:09;;;;;;;6.20;4.63;;;3.70;99.90;;;;;;5094755;28;20428;-78
2023/05/08 03:56:35;;;;;;;11.35;5.63;;;3.60;99.90;;;;;;5094890;28;20032;-81
2023/05/08 03:59:19;;;;;;;6.65;5.00;;;3.70;99.90;;;;;;5094717;28;20047;-78
2023/05/08 04:01:53;;;;;;;6.07;4.63;;;3.60;99.90;;;;;;5093453;28;20131;-82
2023/05/08 04:04:42;;;;;;;6.60;5.05;;;3.70;99.90;;;;;;5093295;28;20020;-78
2023/05/08 04:07:17;;;;;;;5.20;4.68;;;3.70;99.90;;;;;;5094609;28;20020;-78
2023/05/08 04:10:05;;;;;;;4.65;4.20;;;3.70;99.90;;;;;;5081737;28;20436;-81
2023/05/08 04:12:38;;;;;;;5.90;4.68;;;3.70;99.90;;;;;;5074082;28;20047;-78
2023/05/08 04:15:08;;;;;;;6.50;4.40;;;3.70;99.90;;;;;;5074235;28;20020;-78
2023/05/08 04:17:41;;;;;;;6.00;4.60;;;3.70;99.90;;;;;;5072824;28;20497;-78
2023/05/08 04:20:11;;;;;;;5.97;4.53;;;3.70;99.90;;;;;;5074069;28;20021;-81
2023/05/08 04:22:39;;;;;;;6.63;4.88;;;3.80;99.90;;;;;;5072745;28;20029;-78
2023/05/08 04:25:07;;;;;;;6.65;4.18;;;3.80;99.90;;;;;;5072767;28;20478;-79
2023/05/08 04:27:35;;;;;;;7.47;4.85;;;3.80;99.90;;;;;;5072601;28;20035;-78
2023/05/08 04:30:01;;;;;;;5.35;4.63;;;3.80;99.90;;;;;;5072234;28;20020;-81
2023/05/08 04:32:28;;;;;;;9.15;5.25;;;3.70;99.90;;;;;;5072319;28;20064;-78
2023/05/08 04:34:55;;;;;;;8.00;4.43;;;3.70;99.90;;;;;;5073775;28;20053;-81
2023/05/08 04:37:30;;;;;;;6.88;4.65;;;3.80;99.90;;;;;;5072513;28;20073;-80
2023/05/08 04:39:57;;;;;;;7.18;5.00;;;3.80;99.90;;;;;;5073798;28;20028;-78
2023/05/08 04:42:24;;;;;;;6.72;5.90;;;3.80;99.90;;;;;;5073568;28;20016;-81
2023/05/08 04:44:50;;;;;;;10.05;5.70;;;3.80;99.90;;;;;;5072400;28;20047;-77
2023/05/08 04:47:16;;;;;;;8.32;5.85;;;3.80;99.90;;;;;;5073487;28;20121;-78
2023/05/08 04:49:41;;;;;;;7.78;5.32;;;3.80;99.90;;;;;;5072271;28;20028;-78
2023/05/08 04:52:07;;;;;;;7.32;4.90;;;3.70;99.90;;;;;;5071970;28;20032;-81
2023/05/08 04:54:33;;;;;;;7.85;5.45;;;3.70;99.90;;;;;;5073493;28;20032;-81
2023/05/08 04:56:59;;;;;;;6.55;4.57;;;3.70;99.90;;;;;;5072141;28;20020;-77
2023/05/08 04:59:25;;;;;;;7.53;5.25;;;3.60;99.90;;;;;;5073492;28;20024;-79
2023/05/08 05:01:50;;;;;;;7.32;6.13;;;3.50;99.90;;;;;;5073336;28;20390;-81
2023/05/08 05:04:16;;;;;;;7.90;5.38;;;3.60;99.90;;;;;;5072042;28;20024;-78
2023/05/08 05:06:42;;;;;;;9.25;5.47;;;3.50;99.90;;;;;;5071978;28;20381;-78
2023/05/08 05:09:08;;;;;;;17.65;6.57;;;3.50;99.90;;;;;;5073012;28;20040;-78
2023/05/08 05:11:34;;;;;;;8.73;5.50;;;3.50;99.90;;;;;;5073206;28;20024;-78
2023/05/08 05:13:59;;;;;;;9.73;6.07;;;3.60;99.90;;;;;;5071716;28;20375;-78
2023/05/08 05:16:26;;;;;;;5.82;4.82;;;3.50;99.90;;;;;;5073151;28;20028;-78
2023/05/08 05:18:52;;;;;;;8.48;4.78;;;3.50;99.90;;;;;;5073194;28;20383;-81
2023/05/08 05:21:18;;;;;;;10.70;5.45;;;3.50;99.90;;;;;;5073297;28;20021;-81
2023/05/08 05:23:44;;;;;;;8.07;4.97;;;3.50;99.90;;;;;;5064501;28;20019;-78
2023/05/08 05:26:09;;;;;;;6.22;5.00;;;3.50;99.90;;;;;;5056250;28;20099;-77
2023/05/08 05:28:35;;;;;;;6.97;5.30;;;3.50;99.90;;;;;;5072003;28;20036;-81
2023/05/08 05:31:01;;;;;;;7.90;5.80;;;3.50;99.90;;;;;;5085276;28;20492;-77
2023/05/08 05:33:27;;;;;;;10.20;5.10;;;3.50;99.90;;;;;;5088435;28;20044;-80
2023/05/08 05:35:52;;;;;;;9.18;6.47;;;3.50;99.90;;;;;;5090178;28;20059;-81
2023/05/08 05:38:18;;;;;;;9.30;6.00;;;3.60;99.90;;;;;;5090307;28;20024;-81
2023/05/08 05:40:43;;;;;;;7.47;5.30;;;3.70;99.90;;;;;;5090272;28;20470;-77
2023/05/08 05:43:09;;;;;;;6.25;5.28;;;3.70;99.90;;;;;;5081952;28;20054;-80
2023/05/08 05:45:35;;;;;;;7.35;5.78;;;3.70;99.90;;;;;;5072814;28;20082;-81
2023/05/08 05:48:01;;;;;;;7.60;6.18;;;3.70;99.90;;;;;;5074157;28;20107;-81
2023/05/08 05:50:27;;;;;;;10.77;5.25;;;3.70;99.90;;;;;;5074742;28;20024;-81
2023/05/08 05:52:53;;;;;;;8.40;6.60;;;3.80;99.90;;;;;;5076709;28;20050;-81
2023/05/08 05:55:19;;;;;;;6.13;5.18;;;3.80;99.90;;;;;;5077003;28;20077;-77
2023/05/08 05:57:45;;;;;;;8.13;5.28;;;3.80;99.90;;;;;;5075160;28;20024;-78
2023/05/08 06:00:11;;;;;;;6.35;5.00;;;3.90;99.90;;;;;;5074303;28;20031;-78
2023/05/08 06:02:37;;;;;;;6.53;5.55;;;4.00;99.90;;;;;;5073413;28;20073;-81
2023/05/08 06:05:03;;;;;;;8.35;5.60;;;4.30;99.90;;;;;;5072455;28;20028;-78
2023/05/08 06:07:29;;;;;;;6.72;5.75;;;4.60;99.90;;;;;;5072753;28;20413;-78
2023/05/08 06:09:55;;;;;;;7.97;5.45;;;4.90;99.90;;;;;;5072792;28;20016;-80
2023/05/08 06:12:21;;;;;;;6.72;5.00;;;5.00;99.90;;;;;;5072706;28;20033;-80
2023/05/08 06:14:47;;;;;;;7.50;5.63;;;5.00;99.90;;;;;;5074060;28;20056;-80
2023/05/08 06:17:12;;;;;;;8.32;5.15;;;5.10;99.90;;;;;;5073435;28;20089;-78
2023/05/08 06:19:38;;;;;;;7.07;4.75;;;5.00;99.90;;;;;;5075080;28;20024;-81
2023/05/08 06:22:03;;;;;;;6.75;5.43;;;5.10;99.90;;;;;;5076247;28;20438;-79
2023/05/08 06:24:29;;;;;;;6.93;6.32;;;5.10;99.90;;;;;;5075137;28;20100;-78
2023/05/08 06:26:55;;;;;;;7.95;5.30;;;5.20;99.90;;;;;;5076237;28;20032;-78
2023/05/08 06:29:21;;;;;;;8.50;6.30;;;5.10;99.90;;;;;;5076360;28;20078;-78
2023/05/08 06:31:46;;;;;;;8.20;5.10;;;5.20;99.90;;;;;;5076149;28;20111;-78
2023/05/08 06:34:12;;;;;;;6.28;4.68;;;5.20;99.90;;;;;;5074738;28;20063;-80
2023/05/08 06:36:38;;;;;;;7.45;5.20;;;5.20;99.90;;;;;;5075858;28;20351;-80
2023/05/08 06:39:05;;;;;;;5.70;4.47;;;5.20;99.90;;;;;;5074822;28;20410;-80
2023/05/08 06:41:30;;;;;;;7.40;4.97;;;5.10;99.90;;;;;;5076090;28;20108;-80
2023/05/08 06:43:56;;;;;;;8.40;5.45;;;5.20;99.90;;;;;;5076018;28;20445;-78
2023/05/08 06:46:22;;;;;;;6.20;4.82;;;5.20;99.90;;;;;;5075858;28;20027;-78
2023/05/08 06:48:47;;;;;;;6.43;4.40;;;5.30;99.90;;;;;;5074589;28;20029;-78
2023/05/08 06:51:13;;;;;;;5.05;4.55;;;5.40;99.90;;;;;;5075978;28;20016;-78
2023/05/08 06:53:39;;;;;;;6.07;4.55;;;5.40;99.90;;;;;;5075198;28;20528;-80
2023/05/08 06:56:05;;;;;;;7.80;5.00;;;5.40;99.90;;;;;;5075663;28;20197;-78
2023/05/08 06:58:31;;;;;;;11.65;5.38;;;5.50;99.90;;;;;;5074465;28;20048;-81
2023/05/08 07:00:59;;;;;;;5.55;4.53;;;5.50;99.90;;;;;;5075779;28;20097;-78
2023/05/08 07:03:25;;;;;;;4.97;3.75;;;5.50;99.90;;;;;;5075745;28;20025;-80
2023/05/08 07:05:51;;;;;;;4.93;4.43;;;5.40;99.90;;;;;;5074418;28;20375;-79
2023/05/08 07:08:16;;;;;;;5.93;4.32;;;5.50;99.90;;;;;;5075615;28;20099;-80
2023/05/08 07:10:42;;;;;;;7.25;4.65;;;5.50;99.90;;;;;;5075599;28;20375;-78
2023/05/08 07:13:07;;;;;;;8.55;4.53;;;5.60;98.90;;;;;;5075680;28;20047;-80
2023/05/08 07:15:33;;;;;;;6.18;4.07;;;5.80;97.00;;;;;;5074179;28;20055;-80
2023/05/08 07:17:59;;;;;;;5.82;5.25;;;5.90;95.20;;;;;;5073958;28;20028;-78
2023/05/08 07:20:25;;;;;;;4.90;4.28;;;5.90;93.40;;;;;;5074045;28;20016;-80
2023/05/08 07:22:50;;;;;;;5.40;4.45;;;6.10;90.90;;;;;;5075155;28;20024;-78
2023/05/08 07:25:16;;;;;;;19.38;5.00;;;6.20;89.70;;;;;;5075375;28;20438;-78
2023/05/08 07:27:42;;;;;;;6.45;4.53;;;6.30;90.60;;;;;;5074085;28;20078;-78
2023/05/08 07:30:08;;;;;;;5.20;3.95;;;6.40;89.20;;;;;;5074847;28;20100;-80
2023/05/08 07:32:34;;;;;;;5.03;4.03;;;6.20;85.00;;;;;;5073777;28;20543;-80
2023/05/08 07:35:01;;;;;;;5.72;4.28;;;6.40;86.10;;;;;;5075100;28;20049;-80
2023/05/08 07:37:28;;;;;;;5.40;3.90;;;6.60;84.50;;;;;;5073671;28;20489;-78
2023/05/08 07:39:53;;;;;;;5.03;4.10;;;6.60;83.20;;;;;;5074952;28;20020;-81
2023/05/08 07:42:20;;;;;;;4.97;4.30;;;6.60;82.50;;;;;;5074879;28;20470;-78
2023/05/08 07:44:45;;;;;;;6.18;4.22;;;6.70;81.60;;;;;;5074969;28;20036;-78
2023/05/08 07:47:11;;;;;;;8.57;4.40;;;6.80;82.80;;;;;;5073515;28;20448;-78
2023/05/08 07:49:37;;;;;;;5.00;4.05;;;6.70;81.80;;;;;;5074841;28;20481;-79
2023/05/08 07:52:02;;;;;;;6.43;4.03;;;6.60;80.90;;;;;;5074578;28;20028;-80
2023/05/08 07:54:28;;;;;;;6.57;4.07;;;6.70;81.50;;;;;;5074641;28;20025;-80
2023/05/08 07:56:54;;;;;;;5.50;4.45;;;6.80;81.50;;;;;;5074666;28;20025;-80
2023/05/08 07:59:19;;;;;;;6.50;4.97;;;7.00;82.40;;;;;;5074789;28;20111;-78
2023/05/08 08:01:46;;;;;;;6.03;4.32;;;7.20;81.00;;;;;;5074506;28;20035;-80
2023/05/08 08:04:15;;;;;;;6.47;4.50;;;7.20;79.90;;;;;;5074648;28;20054;-77
2023/05/08 08:06:41;;;;;;;5.28;3.95;;;7.20;79.60;;;;;;5073641;28;20024;-78
2023/05/08 08:09:06;;;;;;;5.78;4.32;;;7.30;80.20;;;;;;5074320;28;20505;-80
2023/05/08 08:11:32;;;;;;;6.97;3.97;;;7.30;80.10;;;;;;5074481;28;20047;-78
2023/05/08 08:13:58;;;;;;;5.82;4.07;;;7.40;79.30;;;;;;5072993;28;20046;-80
2023/05/08 08:16:23;;;;;;;3.90;3.50;;;7.40;78.00;;;;;;5073052;28;20023;-80
2023/05/08 08:18:51;;;;;;;4.50;3.70;;;7.80;78.30;;;;;;5074185;28;20024;-80
2023/05/08 08:21:17;;;;;;;4.80;3.42;;;8.00;76.80;;;;;;5072923;28;20024;-80
2023/05/08 08:23:43;;;;;;;5.13;3.65;;;7.80;73.10;;;;;;5072631;28;20432;-80
2023/05/08 08:26:08;;;;;;;4.20;3.20;;;8.00;73.80;;;;;;5072749;28;20020;-78
2023/05/08 08:28:34;;;;;;;4.10;3.25;;;8.10;73.80;;;;;;5072726;28;20020;-80
2023/05/08 08:31:00;;;;;;;4.75;3.10;;;8.00;72.40;;;;;;5073972;28;20103;-80
2023/05/08 08:33:27;;;;;;;4.57;3.97;;;7.80;73.40;;;;;;5072382;28;20511;-78
2023/05/08 08:35:53;;;;;;;5.53;3.70;;;7.70;74.70;;;;;;5073916;28;20016;-79
2023/05/08 08:38:19;;;;;;;4.57;4.05;;;7.90;76.00;;;;;;5073842;28;20100;-80
2023/05/08 08:40:44;;;;;;;7.18;3.55;;;7.80;76.50;;;;;;5073765;28;20529;-78
2023/05/08 08:43:10;;;;;;;4.70;4.30;;;7.90;74.90;;;;;;5073774;28;20023;-80
2023/05/08 08:45:36;;;;;;;5.85;3.78;;;8.30;74.80;;;;;;5073809;28;20025;-78
2023/05/08 08:48:03;;;;;;;9.18;4.40;;;8.70;73.20;;;;;;5073610;28;20060;-79
2023/05/08 08:50:32;;;;;;;4.07;3.67;;;9.00;71.80;;;;;;5072509;28;20024;-80
2023/05/08 08:53:08;;;;;;;4.22;2.90;;;8.70;69.20;;;;;;5073539;28;20036;-78
2023/05/08 08:55:38;;;;;;;4.97;3.70;;;8.50;69.50;;;;;;5073507;28;20017;-79
2023/05/08 08:58:13;;;;;;;4.22;3.25;;;8.30;69.90;;;;;;5072379;28;20397;-78
2023/05/08 09:00:40;;;;;;;4.85;3.05;;;8.20;71.40;;;;;;5072269;28;20028;-80
2023/05/08 09:03:08;;;;;;;4.53;3.38;;;7.90;71.40;;;;;;5073396;28;20119;-78
2023/05/08 09:05:34;;;;;;;8.20;3.70;;;7.90;72.30;;;;;;5073446;28;20016;-79
2023/05/08 09:08:01;;;;;;;6.85;3.40;;;8.00;71.50;;;;;;5073381;28;20046;-78
2023/05/08 09:10:26;;;;;;;3.90;3.50;;;8.20;72.50;;;;;;5072159;28;20021;-80
2023/05/08 09:12:52;;;;;;;10.27;3.92;;;8.30;72.60;;;;;;5071947;28;20044;-80
2023/05/08 09:15:18;;;;;;;4.13;3.30;;;8.30;72.20;;;;;;5073573;28;20081;-78
2023/05/08 09:17:44;;;;;;;7.93;3.03;;;8.30;71.50;;;;;;5073113;28;20024;-78
2023/05/08 09:20:12;;;;;;;5.30;3.72;;;8.50;69.70;;;;;;5072065;28;20394;-79
2023/05/08 09:22:39;;;;;;;4.43;2.50;;;8.90;70.40;;;;;;5073258;28;20025;-78
2023/05/08 09:25:05;;;;;;;4.40;3.17;;;8.90;69.40;;;;;;5073339;28;20029;-79
2023/05/08 09:27:32;;;;;;;5.72;3.67;;;8.90;69.70;;;;;;5071981;28;20016;-79
2023/05/08 09:30:09;;;;;;;4.85;3.58;;;9.00;69.60;;;;;;5073237;28;20048;-78
2023/05/08 09:32:37;;;;;;;5.00;4.10;;;9.10;69.40;;;;;;5073202;28;20044;-80
2023/05/08 09:35:03;;;;;;;3.28;2.95;;;9.50;69.80;;;;;;5073471;28;20044;-78
2023/05/08 09:37:29;;;;;;;4.18;3.25;;;9.80;69.40;;;;;;5073100;28;20070;-78
2023/05/08 09:40:13;;;;;;;5.28;3.45;;;9.80;68.60;;;;;;5073145;28;20025;-79
2023/05/08 09:42:38;;;;;;;5.07;3.58;;;9.60;68.10;;;;;;5073170;28;20458;-79
2023/05/08 09:45:05;;;;;;;4.45;3.50;;;9.90;68.60;;;;;;5073150;28;20100;-79
2023/05/08 09:47:30;;;;;;;4.35;3.78;;;10.10;69.00;;;;;;5072900;28;20036;-78
2023/05/08 09:49:57;;;;;;;5.45;3.72;;;9.90;67.10;;;;;;5073150;28;20100;-80
2023/05/08 09:52:23;;;;;;;6.95;3.75;;;9.70;67.40;;;;;;5071626;28;20033;-80
2023/05/08 09:55:01;;;;;;;10.25;3.40;;;9.70;66.90;;;;;;5071778;28;20539;-78
2023/05/08 09:57:31;;;;;;;5.93;3.58;;;9.60;66.50;;;;;;5072979;28;20024;-78
2023/05/08 10:00:01;;;;;;;4.03;3.10;;;9.60;66.50;;;;;;5073011;28;20385;-78
2023/05/08 10:02:27;;;;;;;4.85;3.83;;;9.50;66.50;;;;;;5071527;28;20531;-78
2023/05/08 10:04:53;;;;;;;4.43;3.85;;;9.70;66.90;;;;;;5072812;28;20024;-78
2023/05/08 10:07:33;;;;;;;4.68;4.22;;;9.80;66.90;;;;;;5072853;28;20027;-80
2023/05/08 10:10:01;;;;;;;5.60;3.50;;;9.80;67.30;;;;;;5071293;28;20040;-80
2023/05/08 10:12:27;;;;;;;3.95;3.05;;;9.70;65.60;;;;;;5072626;28;20020;-78
2023/05/08 10:14:54;;;;;;;5.22;3.97;;;9.80;66.70;;;;;;5072788;28;20013;-80
2023/05/08 10:17:26;;;;;;;5.30;3.45;;;9.70;66.30;;;;;;5072859;28;20095;-80
2023/05/08 10:20:01;;;;;;;5.65;3.95;;;9.70;65.20;;;;;;5072796;28;20020;-78
2023/05/08 10:22:28;;;;;;;6.25;3.63;;;9.60;65.70;;;;;;5071405;28;20029;-78
2023/05/08 10:24:56;;;;;;;5.00;3.30;;;9.50;66.90;;;;;;5071189;28;20036;-80
2023/05/08 10:27:43;;;;;;;4.65;3.55;;;9.50;65.80;;;;;;5071172;28;20078;-80
2023/05/08 10:30:11;;;;;;;5.53;3.40;;;9.30;66.00;;;;;;5075586;28;20028;-79
2023/05/08 10:32:41;;;;;;;5.55;3.72;;;9.30;65.60;;;;;;5075712;28;20039;-79
2023/05/08 10:35:09;;;;;;;3.72;3.00;;;9.50;67.00;;;;;;5077255;28;20055;-80
2023/05/08 10:37:36;;;;;;;6.10;3.00;;;9.30;66.30;;;;;;5095393;28;20027;-80
2023/05/08 10:40:04;;;;;;;4.15;3.10;;;9.50;67.50;;;;;;5075047;28;20132;-82
2023/05/08 10:42:30;;;;;;;4.15;3.30;;;9.50;67.60;;;;;;5073608;28;20119;-81
2023/05/08 10:44:56;;;;;;;3.25;2.88;;;9.50;66.40;;;;;;5071752;28;20674;-81
2023/05/08 10:47:54;;;;;;;4.45;2.97;;;9.50;66.40;;;;;;5072759;28;20020;-80
2023/05/08 10:50:38;;;;;;;4.65;3.10;;;9.50;64.50;;;;;;5073250;28;20066;-78
2023/05/08 10:53:19;;;;;;;3.45;2.80;;;9.60;65.20;;;;;;5072318;28;20077;-78
2023/05/08 10:55:49;;;;;;;6.38;3.13;;;9.40;65.90;;;;;;5072272;28;20041;-78
2023/05/08 10:58:27;;;;;;;3.17;2.88;;;9.20;66.10;;;;;;5071106;28;20182;-78
2023/05/08 11:00:56;;;;;;;6.15;2.92;;;9.30;66.50;;;;;;5070073;28;20111;-78
2023/05/08 11:03:31;;;;;;;8.98;4.45;;;9.10;67.50;;;;;;5073008;28;20021;-79
2023/05/08 11:05:58;;;;;;;4.15;2.95;;;9.30;68.60;;;;;;5070933;28;20033;-78
2023/05/08 11:08:29;;;;;;;3.80;2.70;;;9.20;67.60;;;;;;5072198;28;20043;-78
2023/05/08 11:10:58;;;;;;;3.25;2.80;;;9.30;67.10;;;;;;5072981;28;20390;-80
2023/05/08 11:13:34;;;;;;;4.22;2.40;;;9.40;67.10;;;;;;5071959;28;20573;-78
2023/05/08 11:16:00;;;;;;;4.07;2.60;;;9.50;65.60;;;;;;5071013;28;20043;-78
2023/05/08 11:18:27;;;;;;;4.28;2.45;;;9.60;64.60;;;;;;5074423;28;20146;-79
2023/05/08 11:21:05;;;;;;;2.63;2.42;;;9.70;64.30;;;;;;5072705;28;20029;-80
2023/05/08 11:23:37;;;;;;;3.38;2.25;;;9.60;63.80;;;;;;5072369;28;20474;-77
2023/05/08 11:26:10;;;;;;;2.53;2.33;;;9.50;64.30;;;;;;5069873;28;20061;-78
2023/05/08 11:28:56;;;;;;;3.00;2.20;;;9.50;63.80;;;;;;5074002;28;20028;-80
2023/05/08 11:31:22;;;;;;;4.93;2.58;;;9.60;64.60;;;;;;5072274;28;20033;-78
2023/05/08 11:33:48;;;;;;;2.10;2.00;;;9.90;65.10;;;;;;5069750;28;20131;-78
2023/05/08 11:36:16;;;;;;;29.52;3.95;;;10.30;62.80;;;;;;5072522;28;20047;-78
2023/05/08 11:38:43;;;;;;;5.07;1.70;;;10.60;62.40;;;;;;5069843;28;20029;-78
2023/05/08 11:41:20;;;;;;;2.33;2.10;;;10.50;60.20;;;;;;5071261;28;20033;-78
2023/05/08 11:44:04;;;;;;;4.88;2.72;;;10.50;60.70;;;;;;5069139;28;20017;-78
2023/05/08 11:46:52;;;;;;;4.25;2.33;;;10.20;60.40;;;;;;5069267;28;20025;-77
2023/05/08 11:49:20;;;;;;;5.00;2.22;;;10.10;60.70;;;;;;5072208;28;20032;-77
2023/05/08 11:51:53;;;;;;;2.53;2.25;;;9.90;61.60;;;;;;5072165;28;20459;-77
2023/05/08 11:54:20;;;;;;;2.13;1.92;;;9.70;61.80;;;;;;5073804;28;20482;-77
2023/05/08 11:56:48;;;;;;;3.05;2.08;;;9.80;63.00;;;;;;5073174;28;20044;-77
2023/05/08 11:59:14;;;;;;;5.43;2.75;;;9.70;60.90;;;;;;5072037;28;20024;-77
2023/05/08 12:01:40;;;;;;;2.53;2.13;;;9.70;61.90;;;;;;5070092;28;20043;-78
2023/05/08 12:04:07;;;;;;;5.35;2.60;;;9.60;61.00;;;;;;5072317;28;20024;-77
2023/05/08 12:06:36;;;;;;;3.92;2.22;;;9.60;62.10;;;;;;5073008;28;20028;-77
2023/05/08 12:09:08;;;;;;;6.90;2.47;;;9.80;62.70;;;;;;5071766;28;20378;-77
2023/05/08 12:11:34;;;;;;;4.67;2.40;;;9.80;62.20;;;;;;5071721;28;20414;-77
2023/05/08 12:13:59;;;;;;;4.35;2.45;;;9.90;62.30;;;;;;5071487;28;20037;-77
2023/05/08 12:16:25;;;;;;;8.27;2.47;;;10.00;62.00;;;;;;5069932;28;20128;-78
2023/05/08 12:18:54;;;;;;;3.85;2.20;;;10.10;61.60;;;;;;5069621;28;20035;-78
2023/05/08 12:21:20;;;;;;;2.58;2.10;;;10.20;61.80;;;;;;5070176;28;20512;-78
2023/05/08 12:23:46;;;;;;;4.32;1.83;;;10.30;60.40;;;;;;5072784;28;20028;-78
2023/05/08 12:26:12;;;;;;;2.38;2.17;;;10.50;61.40;;;;;;5071767;28;20111;-77
2023/05/08 12:28:39;;;;;;;4.00;2.50;;;10.60;60.40;;;;;;5071226;28;20032;-78
2023/05/08 12:31:05;;;;;;;2.20;1.98;;;10.70;62.00;;;;;;5070654;28;20465;-77
2023/05/08 12:33:33;;;;;;;2.28;1.88;;;10.60;59.80;;;;;;5071016;28;20094;-78
2023/05/08 12:35:59;;;;;;;2.65;2.28;;;10.40;59.20;;;;;;5071068;28;20020;-78
2023/05/08 12:38:28;;;;;;;5.18;2.88;;;10.30;59.70;;;;;;5072907;28;20035;-79
2023/05/08 12:40:56;;;;;;;3.15;2.40;;;10.30;61.10;;;;;;5072238;28;20154;-79
2023/05/08 12:43:36;;;;;;;2.47;2.08;;;10.60;60.70;;;;;;5070730;28;20111;-77
2023/05/08 12:46:03;;;;;;;2.22;1.73;;;10.90;60.90;;;;;;5070997;28;20059;-81
2023/05/08 12:48:29;;;;;;;2.75;1.70;;;10.90;58.10;;;;;;5069884;28;20561;-81
2023/05/08 12:51:01;;;;;;;5.03;2.20;;;10.90;59.10;;;;;;5071925;28;20039;-81
2023/05/08 12:53:30;;;;;;;5.40;2.60;;;10.70;58.00;;;;;;5071669;28;20040;-81
2023/05/08 12:55:59;;;;;;;3.53;2.13;;;11.10;59.50;;;;;;5072002;28;20035;-81
2023/05/08 12:58:30;;;;;;;2.83;1.77;;;11.50;59.80;;;;;;5071990;28;20226;-81
2023/05/08 13:01:09;;;;;;;2.38;2.17;;;11.30;57.60;;;;;;5072056;28;20032;-79
2023/05/08 13:03:35;;;;;;;2.90;1.83;;;11.40;58.20;;;;;;5072985;28;20107;-78